Time;durP1;ratioP1;P1;durP2;ratioP2;P2;SDS_P1;SDS_P2;PMS_P1;PMS_P2;Temp;Humidity;BMP_temperature;BMP_pressure;BME280_temperature;BME280_humidity;BME280_pressure;Samples;Min_cycle;Max_cycle;Signal;HPM_P1;HPM_P2
2021/06/21 00:01:50;;;;;;;3.70;1.47;;;16.80;99.90;;;;;;4994886;28;20247;-67
2021/06/21 00:04:16;;;;;;;3.50;2.93;;;16.90;99.90;;;;;;4994903;28;20204;-67
2021/06/21 00:06:42;;;;;;;9.73;3.63;;;16.80;99.90;;;;;;4995206;28;20179;-67
2021/06/21 00:09:08;;;;;;;4.60;1.60;;;16.60;99.90;;;;;;4994952;28;20594;-67
2021/06/21 00:11:33;;;;;;;3.90;1.50;;;16.50;99.90;;;;;;4994695;28;20403;-67
2021/06/21 00:13:59;;;;;;;3.00;1.30;;;16.40;99.90;;;;;;4994714;28;20199;-67
2021/06/21 00:16:26;;;;;;;4.30;1.80;;;16.40;99.90;;;;;;4994828;28;20179;-67
2021/06/21 00:18:52;;;;;;;7.60;2.40;;;16.20;99.90;;;;;;4994839;28;20214;-67
2021/06/21 00:21:18;;;;;;;6.07;2.17;;;16.20;99.90;;;;;;4994428;28;20500;-68
2021/06/21 00:23:44;;;;;;;3.30;1.80;;;16.30;99.90;;;;;;4994507;28;20577;-67
2021/06/21 00:26:09;;;;;;;2.60;1.77;;;16.40;99.90;;;;;;4993194;28;20509;-67
2021/06/21 00:28:35;;;;;;;2.87;1.63;;;16.50;99.90;;;;;;4993307;28;20219;-67
2021/06/21 00:31:01;;;;;;;7.70;2.33;;;16.50;99.90;;;;;;4994273;28;20179;-67
2021/06/21 00:33:27;;;;;;;2.90;1.40;;;16.50;99.90;;;;;;4994375;28;20200;-67
2021/06/21 00:35:52;;;;;;;5.67;2.20;;;16.50;99.90;;;;;;4994319;28;20421;-67
2021/06/21 00:38:18;;;;;;;3.03;1.70;;;16.50;99.90;;;;;;4994381;28;20266;-67
2021/06/21 00:40:44;;;;;;;2.67;2.40;;;16.50;99.90;;;;;;4993039;28;20203;-67
2021/06/21 00:43:10;;;;;;;2.73;1.83;;;16.60;99.90;;;;;;4993776;28;20190;-67
2021/06/21 00:45:36;;;;;;;3.80;1.63;;;16.70;99.90;;;;;;4994166;28;20734;-67
2021/06/21 00:48:01;;;;;;;2.37;1.23;;;16.70;99.90;;;;;;4994223;28;20234;-67
2021/06/21 00:50:29;;;;;;;6.13;2.13;;;16.80;99.90;;;;;;4994298;28;20414;-67
2021/06/21 00:52:58;;;;;;;5.50;2.00;;;16.90;99.90;;;;;;4993833;28;20187;-67
2021/06/21 00:55:24;;;;;;;3.23;1.93;;;16.80;99.90;;;;;;4994039;28;20460;-67
2021/06/21 00:57:51;;;;;;;4.47;2.60;;;16.70;99.90;;;;;;4994157;28;20417;-67
2021/06/21 01:00:19;;;;;;;5.30;1.67;;;16.70;99.90;;;;;;4993906;28;20512;-67
2021/06/21 01:02:46;;;;;;;3.77;2.10;;;16.70;99.90;;;;;;4992446;28;20422;-67
2021/06/21 01:05:15;;;;;;;2.80;1.67;;;16.70;99.90;;;;;;4993876;28;20435;-67
2021/06/21 01:07:41;;;;;;;5.70;2.10;;;16.70;99.90;;;;;;4994132;28;20940;-67
2021/06/21 01:10:09;;;;;;;3.20;2.90;;;16.80;99.90;;;;;;4994002;28;20470;-67
2021/06/21 01:12:37;;;;;;;2.33;1.73;;;16.90;99.90;;;;;;4993542;28;20415;-67
2021/06/21 01:15:08;;;;;;;1.90;1.30;;;16.90;99.90;;;;;;4993694;28;20530;-67
2021/06/21 01:17:52;;;;;;;2.00;1.80;;;16.90;99.90;;;;;;4993802;28;20409;-67
2021/06/21 01:20:39;;;;;;;2.93;1.90;;;17.00;99.90;;;;;;4992623;28;20454;-67
2021/06/21 01:23:32;;;;;;;4.07;2.10;;;17.00;99.90;;;;;;4993454;28;20919;-67
2021/06/21 01:26:07;;;;;;;7.20;2.37;;;16.90;99.90;;;;;;4992366;28;20415;-67
2021/06/21 01:28:49;;;;;;;3.93;2.50;;;16.90;99.90;;;;;;4993688;28;20400;-67
2021/06/21 01:31:19;;;;;;;4.70;1.60;;;16.90;99.90;;;;;;4992402;28;20451;-67
2021/06/21 01:33:47;;;;;;;4.20;2.07;;;16.90;99.90;;;;;;4993809;28;20423;-67
2021/06/21 01:36:16;;;;;;;4.53;2.20;;;16.80;99.90;;;;;;4993695;28;20422;-67
2021/06/21 01:38:45;;;;;;;3.17;1.67;;;16.70;99.90;;;;;;4993743;28;20414;-68
2021/06/21 01:41:19;;;;;;;1.93;1.83;;;16.70;99.90;;;;;;4993579;28;20450;-67
2021/06/21 01:43:46;;;;;;;3.57;2.07;;;16.70;99.90;;;;;;4993554;28;20442;-67
2021/06/21 01:46:16;;;;;;;4.83;2.03;;;16.70;99.90;;;;;;4992317;28;20419;-67
2021/06/21 01:48:51;;;;;;;7.33;1.90;;;16.60;99.90;;;;;;4992344;28;20415;-67
2021/06/21 01:51:18;;;;;;;2.33;1.70;;;16.70;99.90;;;;;;4993641;28;20411;-67
2021/06/21 01:53:51;;;;;;;2.60;1.40;;;16.50;99.90;;;;;;4993387;28;20797;-67
2021/06/21 01:56:24;;;;;;;2.97;1.70;;;16.50;99.90;;;;;;4996750;28;20407;-67
2021/06/21 01:58:53;;;;;;;3.97;1.93;;;16.60;99.90;;;;;;4997328;28;20434;-67
2021/06/21 02:01:20;;;;;;;10.77;2.27;;;16.70;99.90;;;;;;4997150;28;20462;-67
2021/06/21 02:04:06;;;;;;;3.23;1.77;;;16.70;99.90;;;;;;4997039;28;20447;-67
2021/06/21 02:06:34;;;;;;;3.57;1.57;;;16.70;99.90;;;;;;4997738;28;20394;-67
2021/06/21 02:09:02;;;;;;;2.70;2.07;;;16.80;99.90;;;;;;4997041;28;20423;-67
2021/06/21 02:11:28;;;;;;;2.70;2.43;;;16.70;99.90;;;;;;4996982;28;20947;-67
2021/06/21 02:13:55;;;;;;;3.53;1.97;;;16.70;99.90;;;;;;4996791;28;20518;-67
2021/06/21 02:16:23;;;;;;;2.80;2.30;;;16.70;99.90;;;;;;4996993;28;20520;-67
2021/06/21 02:18:50;;;;;;;4.63;2.40;;;16.70;99.90;;;;;;4997079;28;20407;-67
2021/06/21 02:21:18;;;;;;;3.40;2.30;;;16.50;99.90;;;;;;4996564;28;20470;-67
2021/06/21 02:23:44;;;;;;;2.87;1.90;;;16.40;99.90;;;;;;4996951;28;20860;-67
2021/06/21 02:26:11;;;;;;;2.53;1.70;;;16.40;99.90;;;;;;4996981;28;20439;-67
2021/06/21 02:28:38;;;;;;;2.60;2.00;;;16.40;99.90;;;;;;4996815;28;20746;-67
2021/06/21 02:31:08;;;;;;;5.17;2.90;;;16.50;99.90;;;;;;4996517;28;20781;-67
2021/06/21 02:33:34;;;;;;;2.93;1.57;;;16.50;99.90;;;;;;4996664;28;20527;-67
2021/06/21 02:36:01;;;;;;;2.37;1.70;;;16.40;99.90;;;;;;4996780;28;20902;-67
2021/06/21 02:38:26;;;;;;;2.77;1.50;;;16.40;99.90;;;;;;4996557;28;20896;-67
2021/06/21 02:40:52;;;;;;;5.03;1.87;;;16.40;99.90;;;;;;4996566;28;20461;-68
2021/06/21 02:43:18;;;;;;;4.33;3.20;;;16.40;99.90;;;;;;4996331;28;20194;-67
2021/06/21 02:45:44;;;;;;;1.83;1.73;;;16.30;99.90;;;;;;4996415;28;20172;-67
2021/06/21 02:48:11;;;;;;;3.30;1.60;;;16.40;99.90;;;;;;4996461;28;20504;-67
2021/06/21 02:50:42;;;;;;;2.60;1.67;;;16.40;99.90;;;;;;4996538;28;20497;-67
2021/06/21 02:53:32;;;;;;;1.10;1.07;;;16.40;99.90;;;;;;4996106;28;20487;-67
2021/06/21 02:56:10;;;;;;;3.27;1.90;;;16.40;99.90;;;;;;4994860;28;20414;-67
2021/06/21 02:58:43;;;;;;;4.77;2.17;;;16.30;99.90;;;;;;4996285;28;20865;-67
2021/06/21 03:01:11;;;;;;;5.03;2.17;;;16.10;99.90;;;;;;4995861;28;20454;-67
2021/06/21 03:03:50;;;;;;;2.57;1.93;;;16.10;99.90;;;;;;4995836;28;20450;-67
2021/06/21 03:06:18;;;;;;;3.47;1.90;;;16.30;99.90;;;;;;4995846;28;20388;-67
2021/06/21 03:08:45;;;;;;;6.10;1.73;;;16.40;99.90;;;;;;4994858;28;20475;-67
2021/06/21 03:11:15;;;;;;;5.00;2.30;;;16.40;99.90;;;;;;4995933;28;20411;-67
2021/06/21 03:13:43;;;;;;;8.03;2.20;;;16.40;99.90;;;;;;4995924;28;20433;-67
2021/06/21 03:16:09;;;;;;;3.23;2.13;;;16.40;99.90;;;;;;4995899;28;20426;-67
2021/06/21 03:18:36;;;;;;;5.13;1.93;;;16.50;99.90;;;;;;4995721;28;20877;-67
2021/06/21 03:21:02;;;;;;;1.40;1.30;;;16.50;99.90;;;;;;4995997;28;20455;-67
2021/06/21 03:23:31;;;;;;;1.70;1.60;;;16.50;99.90;;;;;;4995829;28;20425;-67
2021/06/21 03:26:02;;;;;;;1.47;1.37;;;16.50;99.90;;;;;;4995773;28;20485;-67
2021/06/21 03:28:29;;;;;;;2.80;1.30;;;16.50;99.90;;;;;;4995826;28;20910;-67
2021/06/21 03:31:07;;;;;;;2.67;2.20;;;16.50;99.90;;;;;;4995416;28;20415;-67
2021/06/21 03:33:34;;;;;;;2.93;1.80;;;16.60;99.90;;;;;;4994138;28;20961;-67
2021/06/21 03:36:00;;;;;;;2.03;1.80;;;16.60;99.90;;;;;;4995399;28;20402;-67
2021/06/21 03:38:29;;;;;;;3.90;1.47;;;16.40;99.90;;;;;;4995617;28;20413;-67
2021/06/21 03:41:01;;;;;;;1.90;1.70;;;16.40;99.90;;;;;;4995405;28;20591;-68
2021/06/21 03:43:29;;;;;;;2.57;2.20;;;16.30;99.90;;;;;;4994015;28;20445;-67
2021/06/21 03:45:57;;;;;;;3.13;2.00;;;16.40;99.90;;;;;;4994153;28;20428;-67
2021/06/21 03:48:23;;;;;;;1.60;1.50;;;16.30;99.90;;;;;;4995220;28;20491;-67
2021/06/21 03:50:49;;;;;;;3.67;1.17;;;16.40;99.90;;;;;;4995095;28;20411;-67
2021/06/21 03:53:16;;;;;;;4.20;2.03;;;16.40;99.90;;;;;;4994817;28;20489;-67
2021/06/21 03:55:42;;;;;;;1.33;1.20;;;16.40;99.90;;;;;;4995399;28;20179;-67
2021/06/21 03:58:08;;;;;;;2.87;2.20;;;16.40;99.90;;;;;;4995357;28;20405;-67
2021/06/21 04:00:35;;;;;;;2.20;2.00;;;16.50;99.90;;;;;;4995132;28;20557;-67
2021/06/21 04:03:02;;;;;;;1.33;1.23;;;16.50;99.90;;;;;;4994806;28;20167;-67
2021/06/21 04:05:28;;;;;;;2.90;2.50;;;16.50;99.90;;;;;;4995151;28;20419;-67
2021/06/21 04:07:54;;;;;;;2.10;1.90;;;16.60;99.90;;;;;;4994908;28;20417;-67
2021/06/21 04:10:25;;;;;;;3.33;2.03;;;16.60;99.90;;;;;;4994891;28;20407;-67
2021/06/21 04:12:53;;;;;;;3.23;1.97;;;16.60;99.90;;;;;;4993376;28;20408;-67
2021/06/21 04:15:22;;;;;;;2.13;1.53;;;16.70;99.90;;;;;;4994771;28;20494;-67
2021/06/21 04:17:48;;;;;;;1.50;1.40;;;16.80;99.90;;;;;;4994113;28;20486;-67
2021/06/21 04:20:18;;;;;;;2.27;2.07;;;16.80;99.90;;;;;;4994538;28;20482;-67
2021/06/21 04:22:44;;;;;;;2.47;1.30;;;16.90;99.90;;;;;;4994441;28;20491;-67
2021/06/21 04:25:13;;;;;;;3.33;1.80;;;16.90;99.90;;;;;;4994552;28;20445;-67
2021/06/21 04:27:39;;;;;;;2.33;1.40;;;17.10;99.90;;;;;;4993359;28;20785;-67
2021/06/21 04:30:08;;;;;;;1.73;1.57;;;17.20;99.90;;;;;;4994449;28;20413;-67
2021/06/21 04:32:34;;;;;;;4.30;2.20;;;17.40;99.90;;;;;;4994311;28;20422;-67
2021/06/21 04:35:00;;;;;;;3.00;1.97;;;17.70;99.90;;;;;;4994375;28;20493;-67
2021/06/21 04:37:26;;;;;;;2.30;1.90;;;18.00;99.90;;;;;;4994423;28;20407;-67
2021/06/21 04:39:51;;;;;;;5.37;3.17;;;18.30;99.90;;;;;;4994409;28;20447;-67
2021/06/21 04:42:17;;;;;;;3.20;1.80;;;18.60;99.90;;;;;;4994104;28;20168;-67
2021/06/21 04:44:43;;;;;;;3.47;2.50;;;18.80;99.90;;;;;;4994330;28;20210;-67
2021/06/21 04:47:08;;;;;;;5.13;2.30;;;19.10;99.90;;;;;;4994214;28;20246;-67
2021/06/21 04:49:34;;;;;;;2.40;2.20;;;19.10;99.90;;;;;;4992922;28;20268;-67
2021/06/21 04:52:00;;;;;;;2.17;1.93;;;19.10;99.90;;;;;;4993997;28;20160;-67
2021/06/21 04:54:26;;;;;;;10.20;2.10;;;19.10;99.90;;;;;;4993986;28;20236;-67
2021/06/21 04:56:51;;;;;;;2.50;1.83;;;19.00;99.90;;;;;;4994015;28;20211;-67
2021/06/21 04:59:17;;;;;;;2.63;1.77;;;19.00;99.90;;;;;;4993957;28;20867;-67
2021/06/21 05:01:43;;;;;;;2.37;2.17;;;19.30;99.90;;;;;;4993659;28;20234;-67
2021/06/21 05:04:08;;;;;;;3.80;2.10;;;19.50;99.90;;;;;;4993744;28;20209;-67
2021/06/21 05:06:35;;;;;;;3.83;2.60;;;19.70;99.90;;;;;;4994038;28;20595;-67
2021/06/21 05:09:02;;;;;;;6.90;1.97;;;19.80;99.90;;;;;;4992771;28;20177;-67
2021/06/21 05:11:28;;;;;;;3.17;1.67;;;19.80;99.90;;;;;;4993948;28;20439;-67
2021/06/21 05:13:54;;;;;;;4.50;2.60;;;19.60;99.60;;;;;;4993746;28;20926;-67
2021/06/21 05:16:19;;;;;;;5.10;1.97;;;19.40;99.90;;;;;;4993818;28;20180;-68
2021/06/21 05:18:45;;;;;;;1.67;1.57;;;19.30;99.90;;;;;;4993980;28;20172;-67
2021/06/21 05:21:11;;;;;;;4.10;2.40;;;19.20;99.90;;;;;;4993610;28;20201;-67
2021/06/21 05:23:37;;;;;;;3.13;1.73;;;19.20;99.90;;;;;;4992535;28;20196;-67
2021/06/21 05:26:03;;;;;;;1.93;1.73;;;19.20;99.90;;;;;;4993874;28;20167;-67
2021/06/21 05:28:29;;;;;;;1.83;1.40;;;19.30;99.90;;;;;;4994076;28;20414;-67
2021/06/21 05:30:54;;;;;;;6.07;2.23;;;19.40;99.90;;;;;;4997599;28;20408;-67
2021/06/21 05:33:20;;;;;;;6.23;2.57;;;19.40;99.90;;;;;;4997670;28;20552;-67
2021/06/21 05:35:46;;;;;;;3.20;1.40;;;19.60;99.90;;;;;;4997737;28;20173;-67
2021/06/21 05:38:11;;;;;;;5.33;1.60;;;19.90;99.90;;;;;;4997968;28;20178;-67
2021/06/21 05:40:37;;;;;;;3.17;1.77;;;20.20;99.90;;;;;;4997807;28;20196;-67
2021/06/21 05:43:03;;;;;;;2.93;1.57;;;20.50;99.90;;;;;;4997313;28;20194;-67
2021/06/21 05:45:28;;;;;;;2.27;1.77;;;20.70;99.40;;;;;;4997984;28;20530;-67
2021/06/21 05:47:54;;;;;;;4.00;1.60;;;21.00;99.40;;;;;;4997557;28;20230;-68
2021/06/21 05:50:20;;;;;;;2.10;1.90;;;21.30;98.70;;;;;;4997458;28;20262;-67
2021/06/21 05:52:49;;;;;;;2.30;1.40;;;21.40;98.80;;;;;;4997301;28;20247;-68
2021/06/21 05:55:18;;;;;;;2.40;1.77;;;21.80;97.90;;;;;;4997529;28;20174;-67
2021/06/21 05:57:44;;;;;;;5.10;1.47;;;22.30;96.90;;;;;;4997443;28;20436;-67
2021/06/21 06:00:10;;;;;;;1.23;1.10;;;22.60;96.80;;;;;;4997233;28;20508;-68
2021/06/21 06:02:35;;;;;;;3.80;2.17;;;22.50;95.20;;;;;;4997189;28;20376;-68
2021/06/21 06:05:02;;;;;;;1.33;1.10;;;22.40;95.30;;;;;;4997070;28;20457;-68
2021/06/21 06:07:28;;;;;;;1.60;1.07;;;22.40;95.90;;;;;;4996032;28;20671;-68
2021/06/21 06:09:53;;;;;;;2.10;1.40;;;22.70;95.10;;;;;;4997262;28;20414;-68
2021/06/21 06:12:19;;;;;;;2.40;2.10;;;23.10;94.20;;;;;;4996893;28;20185;-67
2021/06/21 06:14:45;;;;;;;3.53;1.20;;;23.80;95.00;;;;;;4997025;28;20261;-68
2021/06/21 06:17:11;;;;;;;2.93;1.20;;;24.60;93.40;;;;;;4997216;28;20176;-68
2021/06/21 06:19:36;;;;;;;2.43;1.87;;;25.50;90.80;;;;;;4996964;28;20172;-68
2021/06/21 06:22:02;;;;;;;3.10;1.30;;;26.80;87.90;;;;;;4996963;28;20212;-68
2021/06/21 06:24:28;;;;;;;2.50;1.93;;;28.10;83.00;;;;;;4996800;28;20308;-68
2021/06/21 06:26:53;;;;;;;2.17;1.10;;;29.10;76.30;;;;;;4996769;28;20195;-67
2021/06/21 06:29:19;;;;;;;2.10;1.37;;;29.60;72.80;;;;;;4996724;28;20165;-68
2021/06/21 06:31:47;;;;;;;5.90;2.37;;;30.60;72.70;;;;;;4996600;28;20178;-68
2021/06/21 06:34:14;;;;;;;6.03;1.57;;;31.50;63.80;;;;;;4996757;28;20651;-68
2021/06/21 06:36:40;;;;;;;1.90;1.40;;;31.90;64.30;;;;;;4996775;28;20410;-68
2021/06/21 06:39:07;;;;;;;3.10;1.57;;;32.20;61.50;;;;;;4996757;28;20403;-68
2021/06/21 06:41:34;;;;;;;2.60;2.03;;;32.70;58.20;;;;;;4995692;28;20563;-68
2021/06/21 06:44:00;;;;;;;1.80;1.37;;;33.10;58.50;;;;;;4996430;28;20430;-68
2021/06/21 06:46:26;;;;;;;2.40;1.87;;;33.00;57.50;;;;;;4996849;28;20399;-68
2021/06/21 06:48:52;;;;;;;4.87;1.60;;;32.40;58.00;;;;;;4996546;28;20812;-68
2021/06/21 06:51:18;;;;;;;1.47;0.97;;;31.90;56.10;;;;;;4996250;28;20435;-68
2021/06/21 06:53:48;;;;;;;1.20;1.10;;;31.20;57.40;;;;;;4995159;28;20283;-68
2021/06/21 06:58:58;;;;;;;1.13;1.07;;;31.70;58.90;;;;;;4996590;28;20445;-68
2021/06/21 07:01:25;;;;;;;1.87;1.60;;;32.20;54.60;;;;;;4995912;28;20487;-68
2021/06/21 07:03:51;;;;;;;2.30;1.20;;;32.70;53.10;;;;;;4995968;28;20204;-68
2021/06/21 07:06:18;;;;;;;2.63;1.10;;;32.90;53.20;;;;;;4996171;28;20438;-68
2021/06/21 07:08:45;;;;;;;5.93;1.20;;;33.30;51.30;;;;;;4995988;28;20414;-69
2021/06/21 07:11:15;;;;;;;2.00;1.07;;;33.10;52.10;;;;;;4996024;28;20411;-68
2021/06/21 07:13:40;;;;;;;1.53;1.17;;;32.70;51.30;;;;;;4996419;28;20772;-68
2021/06/21 07:16:06;;;;;;;1.97;1.60;;;32.70;53.50;;;;;;4996115;28;20470;-68
2021/06/21 07:18:32;;;;;;;3.50;1.53;;;33.20;49.80;;;;;;4996040;28;20530;-69
2021/06/21 07:20:58;;;;;;;2.30;1.03;;;33.50;49.40;;;;;;4996211;28;20219;-68
2021/06/21 07:23:23;;;;;;;3.60;1.30;;;33.40;49.20;;;;;;4995673;28;20575;-69
2021/06/21 07:25:49;;;;;;;1.33;1.20;;;33.50;47.20;;;;;;4996138;28;20327;-68
2021/06/21 07:28:16;;;;;;;4.20;1.27;;;33.30;47.20;;;;;;4995758;28;20172;-69
2021/06/21 07:30:43;;;;;;;3.50;1.30;;;33.30;47.30;;;;;;4995862;28;20544;-69
2021/06/21 07:33:09;;;;;;;2.50;1.03;;;33.00;48.00;;;;;;4995547;28;20427;-68
2021/06/21 07:35:36;;;;;;;3.33;1.20;;;32.50;48.10;;;;;;4993911;28;20411;-69
2021/06/21 07:38:02;;;;;;;3.07;1.50;;;33.00;51.10;;;;;;4995476;28;20399;-68
2021/06/21 07:40:28;;;;;;;1.80;1.30;;;32.90;46.60;;;;;;4995592;28;20786;-68
2021/06/21 07:42:53;;;;;;;2.40;1.10;;;33.00;46.50;;;;;;4995212;28;20430;-68
2021/06/21 07:45:19;;;;;;;1.90;1.10;;;33.10;47.10;;;;;;4995448;28;20247;-68
2021/06/21 07:47:45;;;;;;;1.60;1.03;;;33.30;45.80;;;;;;4995519;28;20172;-68
2021/06/21 07:50:11;;;;;;;1.30;1.10;;;33.70;46.20;;;;;;4995161;28;20190;-68
2021/06/21 07:52:36;;;;;;;2.00;1.20;;;34.30;46.40;;;;;;4994131;28;20176;-68
2021/06/21 07:55:03;;;;;;;1.47;0.90;;;34.80;45.40;;;;;;4995088;28;20454;-68
2021/06/21 07:57:28;;;;;;;3.00;1.20;;;35.20;44.30;;;;;;4995064;28;20179;-68
2021/06/21 07:59:55;;;;;;;1.37;1.17;;;35.40;43.30;;;;;;4995086;28;20404;-68
2021/06/21 08:02:21;;;;;;;2.07;1.43;;;35.30;42.50;;;;;;4994893;28;20172;-69
2021/06/21 08:04:48;;;;;;;1.40;1.30;;;35.30;44.20;;;;;;4994822;28;20450;-69
2021/06/21 08:07:14;;;;;;;3.40;1.37;;;35.60;42.20;;;;;;4995155;28;20649;-68
2021/06/21 08:09:40;;;;;;;2.80;1.20;;;35.70;40.80;;;;;;4994934;28;20909;-69
2021/06/21 08:12:06;;;;;;;1.10;0.90;;;35.60;42.20;;;;;;4994618;28;20410;-69
2021/06/21 08:14:32;;;;;;;2.57;1.47;;;35.30;41.40;;;;;;4993457;28;20282;-69
2021/06/21 08:16:58;;;;;;;3.77;0.93;;;35.50;43.00;;;;;;4994922;28;20499;-68
2021/06/21 08:19:23;;;;;;;1.67;0.93;;;35.20;41.50;;;;;;4994922;28;20183;-69
2021/06/21 08:21:49;;;;;;;1.07;0.97;;;34.80;44.10;;;;;;4994447;28;20206;-68
2021/06/21 08:24:15;;;;;;;1.40;0.90;;;34.00;41.80;;;;;;4994627;28;20196;-68
2021/06/21 08:26:41;;;;;;;1.50;0.77;;;33.90;42.50;;;;;;4994678;28;20169;-68
2021/06/21 08:29:07;;;;;;;3.20;0.73;;;33.40;42.60;;;;;;4994793;28;20537;-68
2021/06/21 08:31:33;;;;;;;2.10;1.20;;;33.80;44.30;;;;;;4994504;28;20651;-68
2021/06/21 08:33:58;;;;;;;2.10;1.40;;;33.90;44.10;;;;;;4994633;28;20192;-68
2021/06/21 08:36:24;;;;;;;1.60;0.93;;;34.20;41.70;;;;;;4994433;28;20476;-68
2021/06/21 08:38:50;;;;;;;1.50;1.20;;;34.30;41.60;;;;;;4994486;28;20168;-68
2021/06/21 08:41:16;;;;;;;1.70;1.07;;;34.60;40.90;;;;;;4992977;28;20239;-68
2021/06/21 08:43:43;;;;;;;1.07;0.90;;;34.80;40.40;;;;;;4994410;28;20194;-68
2021/06/21 08:46:09;;;;;;;1.30;1.20;;;34.90;40.00;;;;;;4994292;28;20775;-68
2021/06/21 08:48:40;;;;;;;0.90;0.90;;;34.70;41.10;;;;;;4994389;28;20400;-68
2021/06/21 08:51:06;;;;;;;1.53;1.10;;;34.60;41.00;;;;;;4994058;28;20173;-68
2021/06/21 08:53:32;;;;;;;1.20;1.00;;;34.90;40.80;;;;;;4994194;28;20426;-68
2021/06/21 08:55:58;;;;;;;1.57;1.00;;;35.20;39.20;;;;;;4992881;28;20176;-68
2021/06/21 08:58:23;;;;;;;2.30;1.00;;;35.30;39.70;;;;;;4994324;28;20180;-68
2021/06/21 09:00:49;;;;;;;1.00;0.80;;;34.90;39.40;;;;;;4994288;28;20200;-68
2021/06/21 09:03:16;;;;;;;0.87;0.73;;;35.00;40.20;;;;;;4993485;28;20526;-69
2021/06/21 09:05:43;;;;;;;1.80;0.90;;;34.80;39.70;;;;;;4994162;28;20265;-68
2021/06/21 09:08:09;;;;;;;0.87;0.70;;;34.50;39.50;;;;;;4993980;28;20751;-68
2021/06/21 09:10:37;;;;;;;3.20;0.80;;;33.90;40.50;;;;;;4994304;28;20416;-68
2021/06/21 09:13:16;;;;;;;1.53;1.10;;;34.10;42.50;;;;;;4993870;28;20877;-68
2021/06/21 09:15:50;;;;;;;0.80;0.80;;;34.80;39.60;;;;;;4993918;28;20763;-68
2021/06/21 09:18:40;;;;;;;0.93;0.70;;;35.30;38.00;;;;;;4992660;28;20936;-68
2021/06/21 09:21:19;;;;;;;2.47;2.30;;;35.30;36.30;;;;;;4993791;28;20478;-68
2021/06/21 09:23:45;;;;;;;2.63;0.83;;;35.00;37.40;;;;;;4993919;28;20438;-68
2021/06/21 09:26:28;;;;;;;1.40;0.90;;;35.40;38.30;;;;;;4993839;28;20403;-68
2021/06/21 09:28:55;;;;;;;1.07;0.90;;;35.80;38.30;;;;;;4994122;28;20190;-68
2021/06/21 09:31:22;;;;;;;1.00;0.90;;;35.20;38.60;;;;;;4993577;28;20418;-68
2021/06/21 09:33:48;;;;;;;1.57;1.00;;;35.40;38.90;;;;;;4993951;28;20485;-68
2021/06/21 09:36:29;;;;;;;1.63;1.17;;;35.90;37.70;;;;;;4993763;28;20443;-68
2021/06/21 09:39:23;;;;;;;1.73;1.17;;;36.50;36.60;;;;;;4992449;28;20921;-68
2021/06/21 09:42:07;;;;;;;1.47;1.00;;;36.40;38.00;;;;;;4993476;28;20455;-68
2021/06/21 09:44:40;;;;;;;1.07;0.70;;;36.40;36.70;;;;;;4993621;28;20423;-69
2021/06/21 09:47:31;;;;;;;1.87;1.37;;;36.70;37.50;;;;;;4993909;28;20392;-68
2021/06/21 09:50:22;;;;;;;1.17;1.00;;;36.40;34.30;;;;;;4993730;28;20406;-68
2021/06/21 09:52:58;;;;;;;1.60;0.87;;;36.30;36.20;;;;;;4993644;28;20400;-68
2021/06/21 09:55:32;;;;;;;1.90;1.10;;;36.30;36.00;;;;;;4993817;28;20395;-69
2021/06/21 09:58:19;;;;;;;1.10;1.00;;;36.30;35.50;;;;;;4993466;28;20400;-68
2021/06/21 10:00:48;;;;;;;1.60;1.50;;;36.80;35.80;;;;;;4993579;28;20450;-68
2021/06/21 10:03:16;;;;;;;1.90;1.20;;;37.10;35.30;;;;;;4992076;28;20486;-68
2021/06/21 10:06:04;;;;;;;1.43;1.33;;;37.40;36.00;;;;;;4993463;28;20506;-69
2021/06/21 10:08:53;;;;;;;2.53;1.07;;;37.60;37.30;;;;;;4993704;28;20407;-69
2021/06/21 10:11:41;;;;;;;0.90;0.90;;;37.70;34.10;;;;;;4993464;28;20399;-68
2021/06/21 10:14:16;;;;;;;1.00;0.90;;;37.70;36.10;;;;;;4993439;28;20917;-68
2021/06/21 10:16:43;;;;;;;0.90;0.90;;;37.50;32.60;;;;;;4994409;28;20418;-69
2021/06/21 10:19:10;;;;;;;1.33;1.00;;;37.00;34.90;;;;;;4997075;28;20395;-68
2021/06/21 10:21:37;;;;;;;0.70;0.70;;;36.90;32.90;;;;;;4997009;28;20994;-69
2021/06/21 10:24:04;;;;;;;1.37;0.90;;;36.20;34.10;;;;;;4996964;28;20427;-68
2021/06/21 10:26:30;;;;;;;2.23;0.93;;;36.10;36.00;;;;;;4996948;28;20435;-69
2021/06/21 10:28:55;;;;;;;1.53;1.00;;;36.10;39.80;;;;;;4996825;28;20462;-69
2021/06/21 10:31:25;;;;;;;1.60;1.10;;;36.50;38.80;;;;;;4996549;28;20499;-69
2021/06/21 10:33:57;;;;;;;1.77;1.67;;;37.10;38.00;;;;;;4996842;28;20184;-68
2021/06/21 10:36:39;;;;;;;1.90;1.00;;;37.30;32.90;;;;;;4995499;28;20490;-68
2021/06/21 10:39:18;;;;;;;1.63;0.63;;;37.10;34.80;;;;;;4996856;28;20877;-69
2021/06/21 10:42:13;;;;;;;0.70;0.70;;;36.80;34.60;;;;;;4996417;28;20455;-69
2021/06/21 10:44:54;;;;;;;1.63;0.70;;;36.90;34.60;;;;;;4996588;28;20403;-68
2021/06/21 10:47:36;;;;;;;0.60;0.60;;;36.60;36.70;;;;;;4996634;28;20438;-68
2021/06/21 10:50:16;;;;;;;1.83;0.80;;;36.20;38.10;;;;;;4996491;28;20384;-68
2021/06/21 10:52:57;;;;;;;2.53;0.80;;;36.00;35.00;;;;;;4996333;28;20398;-68
2021/06/21 10:57:49;;;;;;;0.93;0.70;;;34.90;39.80;;;;;;4996156;28;20423;-68
2021/06/21 11:00:16;;;;;;;1.50;0.80;;;33.60;40.50;;;;;;4996190;28;20203;-68
2021/06/21 11:02:42;;;;;;;0.60;0.60;;;32.70;41.10;;;;;;4996102;28;20882;-68
2021/06/21 11:05:09;;;;;;;0.90;0.90;;;31.80;43.80;;;;;;4995975;28;20450;-68
2021/06/21 11:07:36;;;;;;;0.73;0.73;;;31.10;41.40;;;;;;4994781;28;20913;-68
2021/06/21 11:10:06;;;;;;;0.70;0.70;;;30.50;43.80;;;;;;4996313;28;20403;-68
2021/06/21 11:12:33;;;;;;;0.93;0.80;;;29.90;44.30;;;;;;4995855;28;20387;-68
2021/06/21 11:15:10;;;;;;;0.93;0.80;;;29.40;45.90;;;;;;4995958;28;20944;-68
2021/06/21 11:17:42;;;;;;;1.60;1.20;;;29.30;44.20;;;;;;4995951;28;20901;-69
2021/06/21 11:20:45;;;;;;;1.93;0.90;;;29.10;47.00;;;;;;4995971;28;20447;-68
2021/06/21 11:23:32;;;;;;;0.83;0.83;;;29.20;49.40;;;;;;4995643;28;20857;-68
2021/06/21 11:25:57;;;;;;;1.80;0.80;;;29.40;47.80;;;;;;4995753;28;20932;-68
2021/06/21 11:28:42;;;;;;;0.70;0.70;;;29.40;42.20;;;;;;4994316;28;20439;-69
2021/06/21 11:31:23;;;;;;;0.70;0.70;;;29.40;48.70;;;;;;4995672;28;20168;-68
2021/06/21 11:34:08;;;;;;;1.03;0.70;;;29.50;49.60;;;;;;4995568;28;20482;-68
2021/06/21 11:36:45;;;;;;;1.13;0.97;;;29.20;47.20;;;;;;4995474;28;20912;-68
2021/06/21 11:39:16;;;;;;;1.07;0.97;;;28.90;49.20;;;;;;4995744;28;20453;-68
2021/06/21 11:42:03;;;;;;;1.30;1.10;;;28.80;51.60;;;;;;4995341;28;20447;-68
2021/06/21 11:44:40;;;;;;;1.07;0.87;;;28.80;49.20;;;;;;4995292;28;20913;-68
2021/06/21 11:47:14;;;;;;;2.80;0.93;;;28.80;50.40;;;;;;4994164;28;20917;-68
2021/06/21 11:49:44;;;;;;;1.20;1.10;;;28.40;52.50;;;;;;4995540;28;20920;-69
2021/06/21 11:52:10;;;;;;;2.23;1.07;;;28.30;49.50;;;;;;4995217;28;20439;-68
2021/06/21 11:54:41;;;;;;;1.37;0.93;;;28.20;52.40;;;;;;4995115;28;20462;-68
2021/06/21 11:57:07;;;;;;;0.70;0.70;;;28.20;52.40;;;;;;4995276;28;20435;-68
2021/06/21 11:59:35;;;;;;;1.23;0.87;;;28.20;47.70;;;;;;4995030;28;20434;-68
2021/06/21 12:02:07;;;;;;;0.83;0.83;;;28.20;50.30;;;;;;4994910;28;20546;-68
2021/06/21 12:04:33;;;;;;;1.10;1.00;;;28.10;52.10;;;;;;4994976;28;20533;-68
2021/06/21 12:06:59;;;;;;;1.30;1.20;;;28.10;52.30;;;;;;4994947;28;20366;-68
2021/06/21 12:09:24;;;;;;;1.73;0.97;;;27.40;52.50;;;;;;4994987;28;20411;-69
2021/06/21 12:11:52;;;;;;;1.13;1.03;;;27.50;52.50;;;;;;4994681;28;20176;-68
2021/06/21 12:14:23;;;;;;;1.07;0.97;;;27.70;51.60;;;;;;4994938;28;20226;-68
2021/06/21 12:16:51;;;;;;;1.27;1.00;;;27.90;51.20;;;;;;4994790;28;20408;-69
2021/06/21 12:19:22;;;;;;;2.07;1.03;;;27.90;52.30;;;;;;4994997;28;20784;-68
2021/06/21 12:21:48;;;;;;;2.40;1.33;;;27.90;51.40;;;;;;4994642;28;20484;-68
2021/06/21 12:24:17;;;;;;;0.73;0.73;;;27.90;51.80;;;;;;4994841;28;20423;-68
2021/06/21 12:26:44;;;;;;;1.30;1.20;;;27.90;50.80;;;;;;4994804;28;20531;-68
2021/06/21 12:29:33;;;;;;;1.83;1.70;;;28.00;53.70;;;;;;4994536;28;20415;-68
2021/06/21 12:32:05;;;;;;;1.50;1.03;;;27.80;54.20;;;;;;4994443;28;20448;-68
2021/06/21 12:34:48;;;;;;;1.30;1.20;;;27.90;53.30;;;;;;4993130;28;20441;-68
2021/06/21 12:37:24;;;;;;;1.10;1.00;;;27.60;48.60;;;;;;4994660;28;20430;-68
2021/06/21 12:39:54;;;;;;;0.90;0.80;;;27.70;50.60;;;;;;4993926;28;20382;-68
2021/06/21 12:42:21;;;;;;;2.30;0.90;;;27.70;52.60;;;;;;4994163;28;20391;-68
2021/06/21 12:44:48;;;;;;;1.47;1.03;;;27.50;53.70;;;;;;4994266;28;20807;-68
2021/06/21 12:47:21;;;;;;;0.97;0.90;;;27.40;55.40;;;;;;4994269;28;20404;-68
2021/06/21 12:49:48;;;;;;;0.90;0.90;;;27.70;48.90;;;;;;4994197;28;20507;-68
2021/06/21 12:52:16;;;;;;;1.13;1.03;;;28.00;50.30;;;;;;4993929;28;20411;-68
2021/06/21 12:54:43;;;;;;;0.80;0.80;;;28.30;49.10;;;;;;4994107;28;20434;-68
2021/06/21 12:57:09;;;;;;;1.27;1.17;;;28.30;47.40;;;;;;4994178;28;20414;-68
2021/06/21 12:59:41;;;;;;;1.30;1.00;;;28.40;46.00;;;;;;4994165;28;20407;-68
2021/06/21 13:02:20;;;;;;;1.07;0.93;;;28.30;47.20;;;;;;4993880;28;20459;-68
2021/06/21 13:05:02;;;;;;;1.30;0.90;;;28.40;49.60;;;;;;4993890;28;20517;-68